首页
METAR-TAF:

METAR-TAF

机场 :

坎佩尔, 法国

纬度: 47-58N, 经度: 004-10W, 海拔: 92米

当前天气观测

该预报发布于15分钟前的21:30 UTC
风速1节,风向南转西南
温度 16°C
湿度 94%
气压 1025 hPa
能见度10公里或以上
少量云层高于1100英尺

METAR: LFRQ 212130Z AUTO 20001KT 9999 FEW011 16/15 Q1025

时间: 23:45 (21:45 UTC)

预报

该预报发布于4小时和45分钟前的17:00 UTC
预报有效从21日的 18点(UTC)到 22日的 18点(UTC)
风速8节,风向西
能见度10公里或以上
少量云层高于2500英尺
短暂存在
从 22日的 00点(UTC)到 22日的 06点(UTC)
风速3节,风向多变
能見度: 3000
轻雾
几率 40% :
短暂存在
从 22日的 01点(UTC)到 22日的 03点(UTC)
能見度: 0500
成为
从 22日的 09点(UTC)到 22日的 10点(UTC)
能见度10公里或以上
1500米以下无云,无积雨云

TAF: LFRQ 211700Z 2118/2218 26008KT 9999 FEW025 TEMPO 2200/2206 VRB03KT 3000 BR PROB40 TEMPO 2201/2203 0500 FG VV/// BECMG 2209/2210 CAVOK

超过4000个机场的气象观测和天气预报(METAR&TAF报告)。

可查询的气象台以黄色和红色小点在地图上表示。

将鼠标移到小点上方,可查看气象台名称。

然后点击查看天气观测和预报。

如需切换地图:点击带黑十字的绿色按钮放大地图;点击带横线的绿色按钮缩小地图;或者点击绿色箭头查看邻近地区的地图。


METAR-TAF: